Time;durP1;ratioP1;P1;durP2;ratioP2;P2;SDS_P1;SDS_P2;PMS_P1;PMS_P2;Temp;Humidity;BMP_temperature;BMP_pressure;BME280_temperature;BME280_humidity;BME280_pressure;Samples;Min_cycle;Max_cycle;Signal;HPM_P1;HPM_P2
2022/12/17 13:06:49;;;;;;;49.03;22.58;;;;;;;18.57;52.99;94443.22;5055849;28;20052;-88
2022/12/17 13:09:47;;;;;;;47.85;22.35;;;;;;;19.09;53.87;94454.06;5056510;28;20025;-87
2022/12/17 13:12:42;;;;;;;43.33;21.20;;;;;;;19.68;51.85;94455.13;5055575;28;20029;-87
2022/12/17 13:15:07;;;;;;;46.05;21.80;;;;;;;19.31;52.87;94461.75;5053651;28;20105;-88
2022/12/17 13:17:43;;;;;;;49.50;24.08;;;;;;;19.98;49.97;94457.75;5076351;28;20032;-88
2022/12/17 13:20:30;;;;;;;49.65;24.95;;;;;;;18.57;52.94;94458.38;5058875;28;20055;-88
2022/12/17 13:23:08;;;;;;;48.08;23.35;;;;;;;18.37;54.12;94457.97;5075431;28;20028;-88
2022/12/17 13:25:33;;;;;;;72.60;27.70;;;;;;;17.95;54.01;94461.06;5075386;28;20074;-88
2022/12/17 13:28:02;;;;;;;52.88;25.38;;;;;;;18.17;54.31;94468.09;5055377;28;20025;-89
2022/12/17 13:30:37;;;;;;;89.97;27.45;;;;;;;18.71;52.93;94476.75;5055196;28;20346;-88
2022/12/17 13:33:27;;;;;;;148.75;28.25;;;;;;;18.19;53.46;94476.53;5055551;28;20025;-88
2022/12/17 13:36:43;;;;;;;51.58;24.92;;;;;;;18.88;53.33;94474.09;5056493;28;20111;-88
2022/12/17 13:39:14;;;;;;;234.52;31.13;;;;;;;18.09;54.55;94474.97;5034227;28;20358;-88
2022/12/17 13:41:39;;;;;;;89.35;28.35;;;;;;;17.06;57.24;94486.56;5064665;28;20044;-87
2022/12/17 13:44:20;;;;;;;274.50;32.90;;;;;;;17.66;56.54;94486.28;5055379;28;20438;-88
2022/12/17 13:46:48;;;;;;;447.92;37.13;;;;;;;17.22;57.53;94488.84;5055201;28;20036;-88
2022/12/17 13:49:22;;;;;;;182.95;29.85;;;;;;;17.91;56.67;94495.34;5055200;28;20115;-88
2022/12/17 13:52:18;;;;;;;54.75;24.88;;;;;;;18.94;54.08;94494.03;5055060;28;20037;-88
2022/12/17 13:54:44;;;;;;;82.88;24.95;;;;;;;18.54;54.27;94494.28;5055618;28;20139;-88
2022/12/17 13:57:17;;;;;;;159.18;28.17;;;;;;;18.49;54.30;94497.88;5056226;28;20123;-87
2022/12/17 13:59:51;;;;;;;190.95;28.58;;;;;;;18.36;54.51;94504.91;5056164;28;20029;-87
2022/12/17 14:02:22;;;;;;;236.93;30.05;;;;;;;17.70;55.04;94511.06;5055006;28;20045;-87
2022/12/17 14:04:52;;;;;;;363.88;37.05;;;;;;;17.32;56.06;94515.00;5071596;28;20029;-87
2022/12/17 14:07:18;;;;;;;438.48;36.60;;;;;;;17.81;56.76;94508.94;5054952;28;20024;-89
2022/12/17 14:09:43;;;;;;;249.90;29.50;;;;;;;17.47;55.66;94519.13;5055135;28;20116;-88
2022/12/17 14:12:22;;;;;;;248.48;30.15;;;;;;;18.39;55.78;94511.47;5058784;28;20029;-88
2022/12/17 14:15:00;;;;;;;48.40;22.27;;;;;;;18.97;52.93;94518.38;5060637;28;20029;-87
2022/12/17 14:17:27;;;;;;;250.30;30.23;;;;;;;18.40;53.57;94523.63;5073718;28;20119;-87
2022/12/17 14:19:57;;;;;;;340.67;33.40;;;;;;;18.13;53.67;94517.56;5078336;28;20158;-88
2022/12/17 14:22:36;;;;;;;47.63;23.95;;;;;;;18.62;54.43;94522.69;5079974;28;20448;-87
2022/12/17 14:25:02;;;;;;;82.15;27.48;;;;;;;17.36;55.70;94526.56;5078774;28;20032;-88
2022/12/17 14:27:35;;;;;;;116.25;26.80;;;;;;;17.53;56.97;94533.78;5079774;28;20111;-88
2022/12/17 14:30:03;;;;;;;198.75;30.15;;;;;;;16.94;56.03;94534.75;5078148;28;20337;-88
2022/12/17 14:32:34;;;;;;;77.43;25.20;;;;;;;18.16;55.65;94534.72;5078328;28;20349;-88
2022/12/17 14:35:00;;;;;;;51.05;26.65;;;;;;;18.17;54.84;94537.03;5077835;28;20031;-89
2022/12/17 14:37:26;;;;;;;50.83;23.65;;;;;;;17.83;55.72;94537.75;5078212;28;20044;-88
2022/12/17 14:39:54;;;;;;;63.17;23.40;;;;;;;17.78;57.11;94536.03;5077769;28;20028;-88
2022/12/17 14:42:24;;;;;;;1886.05;774.67;;;;;;;17.52;56.41;94534.88;5078045;28;20448;-89
2022/12/17 14:45:02;;;;;;;468.33;210.27;;;;;;;18.01;54.24;94539.34;5062004;28;20040;-89
2022/12/17 14:47:35;;;;;;;124.43;53.55;;;;;;;18.26;55.69;94542.34;5061441;28;20032;-89
2022/12/17 14:50:04;;;;;;;104.50;48.13;;;;;;;18.69;55.41;94538.13;5061290;28;20040;-89
2022/12/17 14:52:47;;;;;;;57.65;25.30;;;;;;;18.67;54.26;94537.66;5078722;28;20107;-88
2022/12/17 14:55:31;;;;;;;94.82;34.88;;;;;;;18.86;53.22;94544.50;5079338;28;20040;-88
2022/12/17 14:58:12;;;;;;;166.55;39.60;;;;;;;18.76;53.37;94557.00;5078914;28;20086;-88
2022/12/17 15:00:39;;;;;;;55.63;19.20;;;;;;;18.35;54.37;94559.06;5078538;28;20453;-88
2022/12/17 15:03:04;;;;;;;55.80;17.65;;;;;;;18.11;54.15;94556.06;5078642;28;20032;-88
2022/12/17 15:05:29;;;;;;;501.20;33.55;;;;;;;17.12;54.47;94552.63;5079095;28;20040;-87
2022/12/17 15:07:55;;;;;;;38.58;18.17;;;;;;;17.50;56.08;94552.16;5079151;28;20063;-87
2022/12/17 15:10:21;;;;;;;889.85;59.05;;;;;;;16.46;56.73;94548.63;5077113;28;20094;-87
2022/12/17 15:12:50;;;;;;;38.70;20.38;;;;;;;17.60;55.93;94561.72;5078951;28;20339;-88
2022/12/17 15:15:16;;;;;;;97.07;20.42;;;;;;;17.93;53.65;94558.66;5078681;28;20035;-89
2022/12/17 15:17:41;;;;;;;41.83;19.88;;;;;;;18.01;54.55;94562.41;5077670;28;20111;-88
2022/12/17 15:20:11;;;;;;;126.47;22.15;;;;;;;18.32;54.53;94574.81;5077552;28;20036;-88
2022/12/17 15:22:37;;;;;;;141.35;21.65;;;;;;;18.29;54.12;94578.09;5076737;28;20036;-88
2022/12/17 15:25:03;;;;;;;71.35;18.58;;;;;;;18.10;53.74;94581.81;5077354;28;20040;-88
2022/12/17 15:27:28;;;;;;;556.78;43.65;;;;;;;17.49;55.17;94587.66;5078461;28;20035;-88
2022/12/17 15:29:54;;;;;;;801.90;55.10;;;;;;;16.80;56.21;94595.69;5077345;28;20037;-88
2022/12/17 15:32:21;;;;;;;269.25;26.38;;;;;;;17.55;56.31;94599.72;5078596;28;20445;-88
2022/12/17 15:34:47;;;;;;;897.50;51.78;;;;;;;16.29;58.66;94604.78;5078510;28;20036;-88
2022/12/17 15:37:12;;;;;;;570.90;42.47;;;;;;;16.78;58.30;94603.13;5078161;28;20055;-88
2022/12/17 15:39:38;;;;;;;388.48;35.40;;;;;;;17.28;57.18;94601.44;5078473;28;20350;-88
2022/12/17 15:44:48;;;;;;;1078.60;64.03;;;;;;;17.31;54.75;94611.44;5062928;28;20126;-87
2022/12/17 15:47:13;;;;;;;654.92;51.35;;;;;;;17.17;57.17;94626.63;5078308;28;20028;-87
2022/12/17 15:49:38;;;;;;;898.55;62.13;;;;;;;17.10;57.06;94641.06;5076729;28;20036;-87
2022/12/17 15:52:04;;;;;;;222.68;30.13;;;;;;;17.35;55.92;94640.75;5077910;28;20342;-88
2022/12/17 15:54:29;;;;;;;137.38;24.45;;;;;;;17.89;55.15;94635.34;5076615;28;20504;-88
2022/12/17 15:56:55;;;;;;;116.53;24.88;;;;;;;17.49;55.02;94641.44;5076803;28;20070;-87
2022/12/17 15:59:21;;;;;;;75.53;21.48;;;;;;;18.04;53.54;94649.31;5076595;28;20036;-88
2022/12/17 16:01:46;;;;;;;39.88;19.60;;;;;;;18.03;54.12;94648.53;5077737;28;20040;-88
2022/12/17 16:04:14;;;;;;;44.45;20.30;;;;;;;17.29;55.54;94648.03;5078000;28;20038;-88
2022/12/17 16:06:39;;;;;;;40.28;18.85;;;;;;;17.15;55.68;94650.75;5076431;28;20127;-88
2022/12/17 16:09:05;;;;;;;34.00;17.48;;;;;;;17.93;54.96;94654.09;5077537;28;20111;-88
2022/12/17 16:11:30;;;;;;;45.47;20.23;;;;;;;18.49;53.21;94654.38;5076106;28;20063;-89
2022/12/17 16:13:56;;;;;;;459.50;36.67;;;;;;;17.84;54.54;94667.31;5075883;28;20035;-87
2022/12/17 16:16:22;;;;;;;54.63;22.33;;;;;;;18.49;53.62;94665.00;5071170;28;20409;-87
2022/12/17 16:18:47;;;;;;;457.38;38.85;;;;;;;17.91;52.85;94672.94;5077174;28;20373;-87
2022/12/17 16:21:13;;;;;;;295.27;76.35;;;;;;;18.38;52.52;94669.06;5059890;28;20043;-87
2022/12/17 16:23:38;;;;;;;578.90;47.33;;;;;;;18.11;52.07;94670.06;5056477;28;20385;-86
2022/12/17 16:26:06;;;;;;;70.32;22.23;;;;;;;18.99;52.48;94667.53;5056987;28;20028;-86
2022/12/17 16:28:31;;;;;;;40.38;19.65;;;;;;;18.90;51.71;94678.16;5057290;28;20028;-86
2022/12/17 16:31:05;;;;;;;170.38;27.23;;;;;;;19.34;49.37;94676.25;5055694;28;20044;-86
2022/12/17 16:33:32;;;;;;;308.98;35.35;;;;;;;18.46;52.02;94678.13;5055227;28;20040;-86
2022/12/17 16:35:58;;;;;;;232.90;35.58;;;;;;;18.51;52.27;94694.69;5055616;28;20041;-86
2022/12/17 16:38:23;;;;;;;41.13;22.15;;;;;;;18.92;51.09;94692.69;5057043;28;20033;-86
2022/12/17 16:40:48;;;;;;;57.83;27.05;;;;;;;18.93;50.81;94694.25;5056869;28;20059;-85
2022/12/17 16:43:14;;;;;;;63.55;28.45;;;;;;;18.78;50.28;94698.13;5057012;28;20028;-87
2022/12/17 16:45:50;;;;;;;179.75;39.05;;;;;;;19.15;49.30;94700.53;5057006;28;20029;-88
2022/12/17 16:48:16;;;;;;;68.18;28.42;;;;;;;18.84;51.62;94705.94;5039651;28;20036;-88
2022/12/17 16:50:43;;;;;;;142.00;60.80;;;;;;;18.85;51.53;94702.97;5055603;28;20339;-87
2022/12/17 16:53:08;;;;;;;103.78;45.38;;;;;;;18.96;51.16;94715.94;5055157;28;20040;-88
2022/12/17 16:55:40;;;;;;;145.88;68.53;;;;;;;19.69;50.36;94722.47;5056835;28;20029;-88
2022/12/17 16:58:05;;;;;;;74.63;34.17;;;;;;;18.87;51.04;94732.66;5055674;28;20041;-87
2022/12/17 17:00:31;;;;;;;95.75;39.53;;;;;;;18.03;51.96;94727.28;5057027;28;20055;-88
2022/12/17 17:02:57;;;;;;;103.78;42.88;;;;;;;17.33;52.92;94740.91;5057046;28;20036;-88
2022/12/17 17:05:22;;;;;;;185.30;45.08;;;;;;;17.67;53.99;94742.19;5057084;28;20407;-88
2022/12/17 17:07:48;;;;;;;112.30;44.33;;;;;;;18.03;51.34;94759.88;5057053;28;20035;-88
2022/12/17 17:10:13;;;;;;;122.22;46.35;;;;;;;17.57;52.85;94764.41;5055601;28;20037;-88
2022/12/17 17:12:38;;;;;;;122.90;46.67;;;;;;;17.55;53.19;94763.16;5055560;28;20037;-88
2022/12/17 17:15:04;;;;;;;132.43;51.03;;;;;;;16.64;53.43;94771.69;5038890;28;20033;-88
2022/12/17 17:17:30;;;;;;;128.75;51.17;;;;;;;17.35;52.79;94781.88;5055338;28;20107;-87
2022/12/17 17:19:55;;;;;;;124.90;48.78;;;;;;;17.52;53.44;94772.50;5039016;28;20028;-88
2022/12/17 17:22:21;;;;;;;128.95;51.90;;;;;;;17.87;51.80;94778.00;5056670;28;20025;-88
2022/12/17 17:24:46;;;;;;;108.90;46.15;;;;;;;17.90;51.56;94777.41;5055649;28;20033;-87
2022/12/17 17:27:11;;;;;;;112.45;47.60;;;;;;;17.79;51.60;94776.09;5056867;28;20426;-88
2022/12/17 17:29:37;;;;;;;119.65;49.30;;;;;;;17.59;52.59;94788.75;5056815;28;20040;-87
2022/12/17 17:32:02;;;;;;;120.88;51.15;;;;;;;17.86;52.24;94781.75;5056689;28;20033;-88
2022/12/17 17:34:28;;;;;;;110.13;46.17;;;;;;;18.20;51.84;94785.69;5056532;28;20338;-88
2022/12/17 17:36:53;;;;;;;115.15;48.38;;;;;;;18.45;50.84;94790.63;5056809;28;20464;-88
2022/12/17 17:39:18;;;;;;;121.35;47.50;;;;;;;17.32;52.72;94795.72;5056445;28;20074;-88
2022/12/17 17:41:44;;;;;;;103.22;47.83;;;;;;;17.71;52.69;94796.13;5056606;28;20334;-88
2022/12/17 17:44:11;;;;;;;110.18;49.05;;;;;;;17.55;52.48;94806.34;5056728;28;20044;-87
2022/12/17 17:46:37;;;;;;;95.97;45.05;;;;;;;18.20;51.98;94804.25;5064207;28;20036;-88
2022/12/17 17:49:04;;;;;;;100.65;47.40;;;;;;;18.46;51.61;94808.88;5079075;28;20082;-88
2022/12/17 17:51:32;;;;;;;105.90;48.67;;;;;;;18.28;50.29;94818.63;5078992;28;20127;-88
2022/12/17 17:53:59;;;;;;;103.57;49.97;;;;;;;18.69;51.03;94827.38;5079330;28;20037;-88
2022/12/17 17:56:29;;;;;;;80.78;40.95;;;;;;;18.60;51.22;94837.97;5080114;28;20031;-88
2022/12/17 17:59:09;;;;;;;88.45;40.30;;;;;;;18.74;50.45;94839.75;5080385;28;20063;-88
2022/12/17 18:01:42;;;;;;;86.93;41.83;;;;;;;18.08;51.74;94841.16;5078826;28;20024;-88
2022/12/17 18:04:14;;;;;;;78.55;39.30;;;;;;;18.79;50.41;94850.22;5079108;28;20323;-88
2022/12/17 18:06:41;;;;;;;77.80;40.03;;;;;;;18.75;50.66;94852.69;5080170;28;20126;-88
2022/12/17 18:09:08;;;;;;;78.60;38.60;;;;;;;18.42;49.60;94853.03;5062228;28;20075;-88
2022/12/17 18:11:33;;;;;;;88.97;42.00;;;;;;;17.54;52.47;94863.06;5078563;28;20449;-89
2022/12/17 18:14:00;;;;;;;90.60;40.72;;;;;;;17.98;52.67;94875.84;5078946;28;20054;-89
2022/12/17 18:16:27;;;;;;;83.30;40.80;;;;;;;18.39;51.42;94860.81;5078245;28;20052;-89
2022/12/17 18:18:55;;;;;;;83.13;40.15;;;;;;;18.44;51.21;94863.34;5079648;28;20036;-88
2022/12/17 18:21:21;;;;;;;81.07;38.22;;;;;;;18.43;51.00;94864.41;5078398;28;20032;-88
2022/12/17 18:23:46;;;;;;;74.45;36.45;;;;;;;18.29;50.73;94860.00;5078447;28;20077;-88
2022/12/17 18:26:14;;;;;;;89.30;39.63;;;;;;;18.43;50.20;94873.16;5079345;28;20422;-88
2022/12/17 18:28:41;;;;;;;99.85;40.03;;;;;;;17.77;51.79;94887.69;5078018;28;20024;-88
2022/12/17 18:31:13;;;;;;;91.30;43.08;;;;;;;17.74;52.59;94887.50;5078093;28;20043;-88
2022/12/17 18:33:40;;;;;;;88.88;43.90;;;;;;;17.30;53.02;94893.22;5079699;28;20039;-88
2022/12/17 18:36:19;;;;;;;89.28;41.08;;;;;;;18.15;51.17;94899.06;5079671;28;20036;-87
2022/12/17 18:38:45;;;;;;;152.85;46.35;;;;;;;17.52;52.37;94911.03;5079605;28;20044;-88
2022/12/17 18:44:02;;;;;;;95.90;44.22;;;;;;;18.25;51.16;94906.00;5078281;28;20036;-89
2022/12/17 18:46:28;;;;;;;108.20;47.30;;;;;;;17.27;53.17;94906.25;5077952;28;20526;-88
2022/12/17 18:48:58;;;;;;;115.90;46.65;;;;;;;17.21;54.10;94910.88;5077834;28;20028;-88
2022/12/17 18:51:24;;;;;;;115.53;48.08;;;;;;;17.23;54.44;94909.50;5079371;28;20064;-88
2022/12/17 18:53:50;;;;;;;113.85;46.58;;;;;;;17.60;52.66;94906.13;5078053;28;20052;-88
2022/12/17 18:56:16;;;;;;;879.10;72.32;;;;;;;16.56;54.82;94902.00;5060597;28;20036;-88
2022/12/17 18:58:58;;;;;;;118.45;47.42;;;;;;;17.88;51.82;94912.09;5077531;28;20037;-88
2022/12/17 19:01:26;;;;;;;101.50;44.63;;;;;;;18.10;52.32;94915.88;5079220;28;20036;-88
2022/12/17 19:03:53;;;;;;;91.32;40.65;;;;;;;17.93;51.68;94919.16;5078951;28;20109;-88
2022/12/17 19:06:19;;;;;;;87.85;39.40;;;;;;;17.55;50.84;94924.75;5079155;28;20431;-88
2022/12/17 19:08:45;;;;;;;548.30;58.92;;;;;;;16.94;54.00;94923.78;5078919;28;20036;-89
2022/12/17 19:11:11;;;;;;;97.63;42.22;;;;;;;17.50;53.48;94926.44;5077502;28;20039;-88
2022/12/17 19:13:37;;;;;;;91.97;42.45;;;;;;;18.05;52.14;94932.69;5077542;28;20032;-88
2022/12/17 19:16:10;;;;;;;95.25;41.10;;;;;;;18.51;51.35;94930.81;5077574;28;20116;-89
2022/12/17 19:18:36;;;;;;;117.25;50.65;;;;;;;17.64;51.06;94930.91;5077467;28;20113;-88
2022/12/17 19:21:02;;;;;;;641.88;65.53;;;;;;;16.68;54.36;94931.44;5077731;28;20086;-88
2022/12/17 19:23:28;;;;;;;139.82;51.03;;;;;;;16.53;54.30;94940.41;5075631;28;20041;-89
2022/12/17 19:25:55;;;;;;;102.80;43.30;;;;;;;17.25;54.33;94935.69;5060616;28;20040;-88
2022/12/17 19:28:20;;;;;;;100.55;43.53;;;;;;;17.41;52.93;94933.50;5077538;28;20388;-88
2022/12/17 19:30:46;;;;;;;107.63;42.85;;;;;;;17.35;52.36;94938.13;5060377;28;20032;-88
2022/12/17 19:33:11;;;;;;;110.10;46.72;;;;;;;16.07;55.24;94948.00;5077454;28;20040;-88
2022/12/17 19:35:37;;;;;;;95.10;41.22;;;;;;;17.14;52.76;94950.19;5078218;28;20471;-88
2022/12/17 19:38:02;;;;;;;101.70;44.45;;;;;;;16.93;52.85;94953.22;5077015;28;20036;-88
2022/12/17 19:40:33;;;;;;;109.57;45.85;;;;;;;16.71;54.45;94951.19;5078392;28;20489;-88
2022/12/17 19:42:59;;;;;;;107.38;43.88;;;;;;;17.00;53.56;94961.56;5078432;28;20170;-89
2022/12/17 19:45:24;;;;;;;92.10;40.33;;;;;;;17.33;52.20;94960.69;5078394;28;20498;-88
2022/12/17 19:47:49;;;;;;;99.82;41.60;;;;;;;16.38;54.42;94966.03;5078341;28;20044;-88
2022/12/17 19:50:15;;;;;;;93.13;41.67;;;;;;;16.91;53.36;94976.53;5076905;28;20040;-90
2022/12/17 19:52:40;;;;;;;92.00;39.03;;;;;;;16.92;52.55;94978.09;5052348;28;20033;-86
2022/12/17 19:55:06;;;;;;;90.55;38.60;;;;;;;16.64;53.38;94984.13;5057969;28;20036;-87
2022/12/17 19:57:35;;;;;;;88.80;37.40;;;;;;;17.52;52.31;94977.25;5067844;28;20170;-87
2022/12/17 20:00:00;;;;;;;81.07;36.17;;;;;;;16.67;52.09;94988.81;5076770;28;20039;-86
2022/12/17 20:02:25;;;;;;;98.60;40.20;;;;;;;15.57;55.11;94988.00;5077725;28;20041;-87
2022/12/17 20:04:52;;;;;;;95.95;38.55;;;;;;;16.88;53.25;94993.00;5061641;28;20419;-86
2022/12/17 20:07:17;;;;;;;76.45;33.47;;;;;;;16.76;52.95;94980.25;5056459;28;20033;-86
2022/12/17 20:09:43;;;;;;;67.82;29.83;;;;;;;17.31;51.39;94989.34;5055932;28;20449;-86
2022/12/17 20:12:10;;;;;;;76.75;32.00;;;;;;;17.55;51.07;94985.69;5057595;28;20328;-87
2022/12/17 20:14:36;;;;;;;67.70;31.10;;;;;;;17.31;51.01;94982.16;5039836;28;20087;-87
2022/12/17 20:17:03;;;;;;;77.30;33.97;;;;;;;17.39;50.53;94993.94;5057844;28;20045;-87
2022/12/17 20:19:30;;;;;;;83.07;34.22;;;;;;;16.49;52.76;94987.78;5040010;28;20023;-87
2022/12/17 20:21:57;;;;;;;70.70;32.03;;;;;;;17.03;52.35;94998.03;5056080;28;20021;-87
2022/12/17 20:24:23;;;;;;;68.75;30.38;;;;;;;17.16;51.37;94998.34;5056421;28;20061;-86
2022/12/17 20:26:51;;;;;;;77.50;34.03;;;;;;;16.82;51.61;95005.53;5055806;28;20469;-87
2022/12/17 20:29:18;;;;;;;74.10;32.78;;;;;;;16.68;52.46;95005.50;5056139;28;20017;-87
2022/12/17 20:31:45;;;;;;;53.40;24.05;;;;;;;15.01;54.51;95003.41;5055917;28;20028;-87
2022/12/17 20:34:13;;;;;;;54.58;24.50;;;;;;;16.23;53.04;95009.38;5057177;28;20060;-87
2022/12/17 20:36:39;;;;;;;58.53;27.58;;;;;;;16.00;54.05;95018.16;5056263;28;20029;-86
2022/12/17 20:39:06;;;;;;;64.50;27.60;;;;;;;16.23;52.64;95017.28;5057096;28;20029;-87
2022/12/17 20:41:33;;;;;;;53.55;23.65;;;;;;;16.84;51.61;95024.53;5057305;28;20029;-87
2022/12/17 20:44:05;;;;;;;52.00;24.90;;;;;;;17.36;50.53;95032.41;5056240;28;20024;-88
2022/12/17 20:46:31;;;;;;;58.22;26.67;;;;;;;16.39;49.49;95033.69;5057336;28;20075;-87
2022/12/17 20:48:59;;;;;;;54.80;24.95;;;;;;;16.90;51.67;95033.97;5055809;28;20512;-87
2022/12/17 20:51:26;;;;;;;51.85;22.92;;;;;;;16.95;51.76;95027.81;5055962;28;20441;-87
2022/12/17 20:53:53;;;;;;;58.58;24.98;;;;;;;17.28;50.50;95038.38;5055350;28;20104;-87
2022/12/17 20:56:23;;;;;;;64.50;29.45;;;;;;;17.49;50.63;95037.97;5056943;28;20053;-87
2022/12/17 20:58:58;;;;;;;71.85;29.40;;;;;;;17.58;50.46;95044.16;5055958;28;20035;-88
2022/12/17 21:01:24;;;;;;;51.72;24.02;;;;;;;17.05;50.56;95056.75;5039017;28;20128;-87
2022/12/17 21:03:52;;;;;;;46.75;21.33;;;;;;;17.56;50.20;95051.63;5057410;28;20033;-88
2022/12/17 21:06:23;;;;;;;53.67;25.33;;;;;;;17.61;49.92;95054.16;5057078;28;20124;-87
2022/12/17 21:08:50;;;;;;;60.65;26.27;;;;;;;16.22;52.09;95058.03;5057065;28;20029;-87
2022/12/17 21:11:17;;;;;;;58.95;25.58;;;;;;;16.88;51.53;95059.16;5055758;28;20032;-88
2022/12/17 21:13:43;;;;;;;64.93;26.90;;;;;;;17.00;51.41;95064.81;5038653;28;20033;-87
2022/12/17 21:16:14;;;;;;;55.20;25.83;;;;;;;17.51;50.63;95063.09;5055473;28;20037;-88
2022/12/17 21:18:39;;;;;;;57.13;25.23;;;;;;;17.02;51.19;95067.94;5055179;28;20036;-87
2022/12/17 21:21:08;;;;;;;56.83;24.23;;;;;;;17.68;50.28;95069.66;5058159;28;20442;-87
2022/12/17 21:23:34;;;;;;;55.75;25.10;;;;;;;17.34;49.44;95070.84;5059264;28;20028;-87
2022/12/17 21:26:09;;;;;;;49.13;23.70;;;;;;;16.56;51.46;95076.59;5059530;28;20103;-87
2022/12/17 21:28:36;;;;;;;60.00;25.85;;;;;;;16.55;53.27;95086.38;5059842;28;20174;-88
2022/12/17 21:31:02;;;;;;;52.50;24.48;;;;;;;17.44;51.08;95091.06;5059340;28;20407;-87
2022/12/17 21:33:28;;;;;;;60.10;26.33;;;;;;;17.66;50.33;95096.47;5042814;28;20409;-87
2022/12/17 21:36:01;;;;;;;58.35;26.08;;;;;;;17.99;49.84;95105.41;5059645;28;20060;-88
2022/12/17 21:38:27;;;;;;;56.75;25.48;;;;;;;17.64;50.37;95103.91;5059299;28;20044;-87
2022/12/17 21:40:53;;;;;;;56.40;26.88;;;;;;;17.89;49.97;95109.03;5060659;28;20033;-87
2022/12/17 21:43:19;;;;;;;58.30;25.77;;;;;;;17.97;49.60;95120.81;5060970;28;20032;-87
2022/12/17 21:45:44;;;;;;;56.72;25.10;;;;;;;18.04;49.14;95115.91;5060664;28;20104;-88
2022/12/17 21:48:10;;;;;;;51.63;24.00;;;;;;;18.20;49.00;95125.13;5059395;28;20112;-87
2022/12/17 21:50:40;;;;;;;58.00;25.40;;;;;;;18.63;48.60;95123.97;5060946;28;20047;-88
2022/12/17 21:53:06;;;;;;;50.70;23.13;;;;;;;18.33;48.90;95122.75;5059256;28;20048;-87
2022/12/17 21:55:31;;;;;;;47.75;23.27;;;;;;;18.25;48.85;95129.53;5059162;28;20036;-87
2022/12/17 21:57:57;;;;;;;55.35;24.52;;;;;;;17.82;49.43;95130.63;5060294;28;20040;-88
2022/12/17 22:00:23;;;;;;;51.90;23.48;;;;;;;17.51;49.75;95133.84;5060237;28;20037;-87
2022/12/17 22:02:48;;;;;;;48.92;23.55;;;;;;;18.16;49.01;95140.06;5059197;28;20112;-88
2022/12/17 22:05:14;;;;;;;53.80;24.30;;;;;;;18.22;48.60;95135.44;5060338;28;20037;-87
2022/12/17 22:07:39;;;;;;;57.75;24.75;;;;;;;17.87;49.19;95130.53;5059021;28;20037;-87
2022/12/17 22:10:05;;;;;;;47.60;21.92;;;;;;;18.12;49.10;95135.66;5058733;28;20041;-88
2022/12/17 22:15:14;;;;;;;57.45;25.60;;;;;;;16.57;51.81;95141.66;5059931;28;20492;-87
2022/12/17 22:17:41;;;;;;;63.08;27.20;;;;;;;16.20;53.07;95141.31;5058478;28;20049;-88
2022/12/17 22:20:07;;;;;;;59.60;25.30;;;;;;;17.06;52.01;95145.69;5059932;28;20024;-88
2022/12/17 22:22:33;;;;;;;59.47;26.95;;;;;;;17.30;50.58;95150.09;5059969;28;20304;-87
2022/12/17 22:24:58;;;;;;;59.97;26.85;;;;;;;17.73;49.84;95151.75;5059941;28;20086;-87
2022/12/17 22:27:24;;;;;;;62.47;25.23;;;;;;;17.86;49.43;95150.16;5058743;28;20159;-88
2022/12/17 22:33:18;;;;;;;60.95;27.90;;;;;;;17.97;49.60;95158.69;5058216;28;20051;-88
2022/12/17 22:35:19;;;;;;;55.53;25.33;;;;;;;18.07;49.11;95157.75;5054701;28;20052;-88
2022/12/17 22:37:44;;;;;;;61.25;26.80;;;;;;;17.85;49.06;95163.69;5058363;28;20071;-87
2022/12/17 22:40:10;;;;;;;52.90;23.42;;;;;;;18.29;48.41;95169.53;5059587;28;20158;-87
2022/12/17 22:45:20;;;;;;;51.45;24.15;;;;;;;17.77;48.78;95168.63;5059325;28;20032;-87
2022/12/17 22:47:46;;;;;;;51.13;22.52;;;;;;;17.31;49.85;95162.25;5058067;28;20431;-88
2022/12/17 22:50:11;;;;;;;56.75;25.15;;;;;;;18.04;48.68;95174.25;5057907;28;20033;-87
2022/12/17 22:52:36;;;;;;;52.67;23.92;;;;;;;18.14;48.65;95171.41;5059351;28;20036;-87
2022/12/17 22:55:02;;;;;;;62.15;26.90;;;;;;;18.21;48.68;95171.00;5058244;28;20468;-88
2022/12/17 22:57:28;;;;;;;58.45;26.65;;;;;;;18.17;48.51;95165.50;5058028;28;20029;-87
2022/12/17 22:59:53;;;;;;;63.40;27.40;;;;;;;18.19;47.90;95165.22;5059167;28;20044;-88
2022/12/17 23:02:19;;;;;;;69.93;28.75;;;;;;;17.08;50.27;95177.97;5078131;28;20036;-88
2022/12/17 23:04:44;;;;;;;73.80;31.23;;;;;;;16.04;52.56;95183.00;5079277;28;20043;-87
2022/12/17 23:07:09;;;;;;;70.95;30.15;;;;;;;16.91;52.16;95182.97;5078228;28;20047;-87
2022/12/17 23:09:35;;;;;;;73.50;30.77;;;;;;;16.61;52.23;95177.03;5078915;28;20059;-87
2022/12/17 23:12:49;;;;;;;77.07;31.42;;;;;;;16.54;52.48;95188.75;5077744;28;20028;-88
2022/12/17 23:14:46;;;;;;;83.15;30.58;;;;;;;17.67;50.54;95190.00;5077481;28;20082;-88
2022/12/17 23:17:11;;;;;;;73.30;32.08;;;;;;;17.96;49.85;95191.59;5078892;28;20509;-88
2022/12/17 23:19:36;;;;;;;65.80;28.25;;;;;;;18.18;49.12;95187.53;5077731;28;20043;-87
2022/12/17 23:22:02;;;;;;;66.43;27.50;;;;;;;18.22;49.03;95196.44;5078839;28;20036;-88
2022/12/17 23:24:27;;;;;;;60.95;27.70;;;;;;;18.38;48.28;95191.63;5078830;28;20038;-87
2022/12/17 23:26:53;;;;;;;64.93;27.98;;;;;;;17.68;49.08;95196.88;5078765;28;20028;-87
2022/12/17 23:29:18;;;;;;;64.15;28.05;;;;;;;17.55;50.24;95200.28;5077492;28;20039;-87
2022/12/17 23:31:43;;;;;;;99.63;28.80;;;;;;;17.78;49.89;95203.84;5078610;28;20039;-87
2022/12/17 23:34:09;;;;;;;73.70;29.15;;;;;;;18.14;48.69;95203.22;5077134;28;20099;-88
2022/12/17 23:36:35;;;;;;;57.67;27.60;;;;;;;18.36;48.52;95202.53;5078592;28;20036;-87
2022/12/17 23:39:00;;;;;;;65.35;28.65;;;;;;;17.80;47.78;95204.38;5077337;28;20173;-88
2022/12/17 23:41:28;;;;;;;66.45;27.80;;;;;;;18.30;49.00;95213.53;5077163;28;20036;-87
2022/12/17 23:43:54;;;;;;;96.93;28.25;;;;;;;17.50;50.43;95217.03;5076536;28;20468;-87
2022/12/17 23:46:20;;;;;;;73.20;30.48;;;;;;;17.80;50.49;95218.38;5076898;28;20093;-87
2022/12/17 23:48:46;;;;;;;71.25;31.85;;;;;;;18.27;49.36;95222.09;5076907;28;20031;-88
2022/12/17 23:51:14;;;;;;;73.80;30.85;;;;;;;18.59;48.95;95229.16;5076708;28;20024;-88
2022/12/17 23:53:39;;;;;;;77.25;31.75;;;;;;;18.22;48.80;95229.06;5078143;28;20064;-88
2022/12/17 23:56:14;;;;;;;72.15;29.85;;;;;;;18.96;47.85;95229.16;5077948;28;20480;-87
2022/12/17 23:58:40;;;;;;;86.05;32.90;;;;;;;17.58;50.69;95226.97;5076486;28;20032;-88
